Time;durP1;ratioP1;P1;durP2;ratioP2;P2;SDS_P1;SDS_P2;PMS_P1;PMS_P2;Temp;Humidity;BMP_temperature;BMP_pressure;BME280_temperature;BME280_humidity;BME280_pressure;Samples;Min_cycle;Max_cycle;Signal;HPM_P1;HPM_P2
2022/01/30 00:01:31;;;;;;;3.90;1.70;;;6.00;99.90;;;;;;5011374;28;20250;-68
2022/01/30 00:03:56;;;;;;;7.33;1.83;;;6.00;99.90;;;;;;5018065;28;20629;-69
2022/01/30 00:06:23;;;;;;;8.23;2.33;;;5.90;99.90;;;;;;5031198;28;20187;-69
2022/01/30 00:08:49;;;;;;;9.00;2.30;;;5.90;99.90;;;;;;5030097;28;20182;-69
2022/01/30 00:11:20;;;;;;;6.67;1.90;;;5.80;99.90;;;;;;5011687;28;20435;-68
2022/01/30 00:13:46;;;;;;;2.07;1.00;;;5.70;99.90;;;;;;5011677;28;20415;-69
2022/01/30 00:16:14;;;;;;;1.57;1.00;;;5.80;99.90;;;;;;5011619;28;20797;-68
2022/01/30 00:18:48;;;;;;;16.90;1.80;;;5.80;99.90;;;;;;5011360;28;20223;-68
2022/01/30 00:23:48;;;;;;;5.63;1.23;;;5.80;99.90;;;;;;5011549;28;20408;-67
2022/01/30 00:26:16;;;;;;;3.00;1.27;;;5.80;99.90;;;;;;5011392;28;20410;-68
2022/01/30 00:28:42;;;;;;;2.70;1.53;;;5.90;99.90;;;;;;5011062;28;20519;-68
2022/01/30 00:31:08;;;;;;;2.10;1.00;;;5.90;99.90;;;;;;5010788;28;20447;-68
2022/01/30 00:33:34;;;;;;;8.37;1.87;;;6.00;99.90;;;;;;5011189;28;20168;-69
2022/01/30 00:35:59;;;;;;;1.70;1.60;;;6.10;99.90;;;;;;5011261;28;20465;-68
2022/01/30 00:38:26;;;;;;;2.63;1.00;;;6.10;99.90;;;;;;5011571;28;20180;-68
2022/01/30 00:40:52;;;;;;;4.40;1.50;;;6.20;99.90;;;;;;5011310;28;20237;-68
2022/01/30 00:43:19;;;;;;;15.13;3.10;;;6.30;99.90;;;;;;5012804;28;20800;-68
2022/01/30 00:45:46;;;;;;;2.23;1.13;;;6.30;99.90;;;;;;5014931;28;20874;-68
2022/01/30 00:48:12;;;;;;;1.33;1.23;;;6.30;99.90;;;;;;5015015;28;20500;-68
2022/01/30 00:50:38;;;;;;;1.83;1.50;;;6.30;99.90;;;;;;5014542;28;20513;-69
2022/01/30 00:53:03;;;;;;;2.10;1.40;;;6.30;99.90;;;;;;5014796;28;20164;-69
2022/01/30 00:55:31;;;;;;;4.50;1.57;;;6.30;99.90;;;;;;5014604;28;20190;-68
2022/01/30 00:57:58;;;;;;;0.90;0.90;;;6.20;99.90;;;;;;5014660;28;20750;-67
2022/01/30 01:00:25;;;;;;;3.00;1.50;;;6.10;99.90;;;;;;5014961;28;20549;-68
2022/01/30 01:02:51;;;;;;;1.40;1.30;;;6.00;99.90;;;;;;5014426;28;20403;-68
2022/01/30 01:05:17;;;;;;;1.97;1.83;;;6.00;99.90;;;;;;5014635;28;20506;-68
2022/01/30 01:07:45;;;;;;;2.50;1.37;;;6.00;99.90;;;;;;5014277;28;20567;-67
2022/01/30 01:10:23;;;;;;;4.43;1.00;;;6.00;99.90;;;;;;5014410;28;20517;-67
2022/01/30 01:23:48;;;;;;;3.43;1.53;;;6.20;99.90;;;;;;5014561;28;20495;-68
2022/01/30 01:26:15;;;;;;;3.80;1.27;;;6.20;99.90;;;;;;5014210;28;20463;-67
2022/01/30 01:28:40;;;;;;;4.33;1.97;;;6.40;99.90;;;;;;5013946;28;20569;-66
2022/01/30 01:31:09;;;;;;;4.80;2.20;;;6.40;99.90;;;;;;5013904;28;20501;-67
2022/01/30 01:33:49;;;;;;;5.40;3.53;;;6.40;99.90;;;;;;5013673;28;20175;-68
2022/01/30 01:36:14;;;;;;;3.07;1.07;;;6.40;99.90;;;;;;5014234;28;20768;-66
2022/01/30 01:38:40;;;;;;;2.00;0.90;;;6.40;99.90;;;;;;5013654;28;20408;-66
2022/01/30 01:41:05;;;;;;;1.83;1.20;;;6.50;99.90;;;;;;5013861;28;20184;-67
2022/01/30 01:43:31;;;;;;;2.53;2.10;;;6.50;99.90;;;;;;5013478;28;20236;-67
2022/01/30 01:45:58;;;;;;;3.27;1.40;;;6.50;99.90;;;;;;5013660;28;20176;-69
2022/01/30 01:48:24;;;;;;;3.27;1.40;;;6.50;99.90;;;;;;5013344;28;20437;-67
2022/01/30 01:50:55;;;;;;;2.20;1.03;;;6.50;99.90;;;;;;5013412;28;20455;-67
2022/01/30 01:53:23;;;;;;;2.70;2.00;;;6.50;99.90;;;;;;5013693;28;20404;-67
2022/01/30 01:55:49;;;;;;;3.27;1.33;;;6.50;99.90;;;;;;5012924;28;20978;-67
2022/01/30 01:58:15;;;;;;;1.63;0.87;;;6.50;99.90;;;;;;5013223;28;20825;-67
2022/01/30 02:00:40;;;;;;;5.03;1.83;;;6.50;99.90;;;;;;5013689;28;20726;-67
2022/01/30 02:03:06;;;;;;;2.73;0.80;;;6.50;99.90;;;;;;5012060;28;20511;-67
2022/01/30 02:05:34;;;;;;;10.03;2.83;;;6.40;99.90;;;;;;5013330;28;20192;-68
2022/01/30 02:10:45;;;;;;;4.87;1.33;;;6.20;99.90;;;;;;5012825;28;20450;-67
2022/01/30 02:13:55;;;;;;;0.70;0.70;;;6.20;99.90;;;;;;5013264;28;20411;-67
2022/01/30 02:24:43;;;;;;;2.37;1.57;;;5.90;99.90;;;;;;5013136;28;20402;-69
2022/01/30 02:27:19;;;;;;;2.13;1.87;;;5.90;99.90;;;;;;5012786;28;20399;-69
2022/01/30 02:29:45;;;;;;;2.40;1.50;;;6.10;99.90;;;;;;5012947;28;20461;-68
2022/01/30 02:32:10;;;;;;;3.93;2.00;;;6.20;99.90;;;;;;5012621;28;20443;-68
2022/01/30 02:34:36;;;;;;;2.67;1.77;;;6.20;99.90;;;;;;5012802;28;20172;-69
2022/01/30 02:37:02;;;;;;;8.53;1.30;;;6.30;99.90;;;;;;5012799;28;20216;-68
2022/01/30 02:39:28;;;;;;;1.77;1.53;;;6.30;99.90;;;;;;5012580;28;20182;-68
2022/01/30 02:41:54;;;;;;;1.73;1.03;;;6.30;99.90;;;;;;5012432;28;20491;-68
2022/01/30 02:46:49;;;;;;;2.93;1.00;;;6.40;99.90;;;;;;5012636;28;20933;-68
2022/01/30 02:51:52;;;;;;;2.73;2.53;;;6.40;99.90;;;;;;5012401;28;20875;-67
2022/01/30 02:54:18;;;;;;;5.83;1.33;;;6.40;99.90;;;;;;5012317;28;20546;-69
2022/01/30 02:56:44;;;;;;;6.53;2.17;;;6.30;99.90;;;;;;5012479;28;20410;-68
2022/01/30 02:59:10;;;;;;;10.03;1.63;;;6.30;99.90;;;;;;5012177;28;20766;-68
2022/01/30 03:01:36;;;;;;;2.33;1.80;;;6.30;99.90;;;;;;5010748;28;20195;-68
2022/01/30 03:04:01;;;;;;;4.33;1.30;;;6.30;99.90;;;;;;5011902;28;20821;-68
2022/01/30 03:06:27;;;;;;;2.70;1.80;;;6.30;99.90;;;;;;5011597;28;20283;-69
2022/01/30 03:08:53;;;;;;;1.20;0.93;;;6.30;99.90;;;;;;5012113;28;20711;-68
2022/01/30 03:11:19;;;;;;;5.20;2.50;;;6.30;99.90;;;;;;5012006;28;20273;-68
2022/01/30 03:13:45;;;;;;;9.00;1.67;;;6.30;99.90;;;;;;5012034;28;20570;-66
2022/01/30 03:16:10;;;;;;;1.57;1.40;;;6.30;99.90;;;;;;5012036;28;20492;-67
2022/01/30 03:18:36;;;;;;;4.83;1.30;;;6.30;99.90;;;;;;5011955;28;20195;-68
2022/01/30 03:21:03;;;;;;;10.03;1.43;;;6.30;99.90;;;;;;5012037;28;20289;-68
2022/01/30 03:23:29;;;;;;;14.40;1.90;;;6.30;99.90;;;;;;5012227;28;20171;-68
2022/01/30 03:25:58;;;;;;;1.43;1.20;;;6.30;99.90;;;;;;5012225;28;20820;-67
2022/01/30 03:28:24;;;;;;;2.47;2.20;;;6.30;99.90;;;;;;5012252;28;20183;-68
2022/01/30 03:30:54;;;;;;;1.83;1.10;;;6.20;99.90;;;;;;5011735;28;20985;-68
2022/01/30 03:33:20;;;;;;;3.60;1.77;;;6.10;99.90;;;;;;5011851;28;20411;-68
2022/01/30 03:35:46;;;;;;;3.07;2.13;;;6.10;99.90;;;;;;5011883;28;20422;-69
2022/01/30 03:38:12;;;;;;;2.47;1.00;;;6.00;99.90;;;;;;5012035;28;20403;-68
2022/01/30 03:40:37;;;;;;;1.90;1.67;;;6.00;99.90;;;;;;5011860;28;20192;-68
2022/01/30 03:43:04;;;;;;;1.40;1.00;;;6.00;99.90;;;;;;5011853;28;20407;-68
2022/01/30 03:45:29;;;;;;;2.90;1.07;;;6.00;99.90;;;;;;5011667;28;20177;-68
2022/01/30 03:47:56;;;;;;;1.63;1.40;;;6.00;99.90;;;;;;5012244;28;20469;-68
2022/01/30 03:50:22;;;;;;;2.33;2.20;;;6.10;99.90;;;;;;5017159;28;20450;-68
2022/01/30 03:52:48;;;;;;;1.60;1.00;;;6.00;99.90;;;;;;5013763;28;20403;-68
2022/01/30 03:55:13;;;;;;;2.80;1.87;;;6.00;99.90;;;;;;5011738;28;20894;-68
2022/01/30 03:57:39;;;;;;;6.90;1.50;;;6.10;99.90;;;;;;5011657;28;20176;-68
2022/01/30 04:00:06;;;;;;;4.10;1.03;;;6.00;99.90;;;;;;5011543;28;20647;-68
2022/01/30 04:02:31;;;;;;;2.30;1.53;;;6.00;99.90;;;;;;5012049;28;20207;-68
2022/01/30 04:04:56;;;;;;;6.20;1.07;;;6.00;99.90;;;;;;5010225;28;20431;-69
2022/01/30 04:07:23;;;;;;;2.97;0.93;;;5.90;99.90;;;;;;5011704;28;20168;-68
2022/01/30 04:09:49;;;;;;;1.50;1.40;;;5.80;99.90;;;;;;5011412;28;20192;-66
2022/01/30 04:12:15;;;;;;;6.63;2.27;;;5.70;99.90;;;;;;5011530;28;20514;-67
2022/01/30 04:14:41;;;;;;;6.20;1.97;;;5.60;99.90;;;;;;5011760;28;20404;-67
2022/01/30 04:17:11;;;;;;;2.40;1.27;;;5.60;99.90;;;;;;5011649;28;20418;-67
2022/01/30 04:19:37;;;;;;;3.67;1.47;;;5.50;99.90;;;;;;5015600;28;20250;-68
2022/01/30 04:22:03;;;;;;;6.30;1.33;;;5.40;99.90;;;;;;5015201;28;20462;-67
2022/01/30 04:24:28;;;;;;;1.43;0.80;;;5.30;99.90;;;;;;5015290;28;20414;-67
2022/01/30 04:26:54;;;;;;;2.30;1.03;;;5.20;99.90;;;;;;5015211;28;20403;-68
2022/01/30 04:29:20;;;;;;;2.30;1.10;;;5.20;99.90;;;;;;5013785;28;20560;-67
2022/01/30 04:31:48;;;;;;;2.83;1.57;;;5.30;99.90;;;;;;5014862;28;20200;-67
2022/01/30 04:34:14;;;;;;;3.30;1.53;;;5.30;99.90;;;;;;5015367;28;20187;-68
2022/01/30 04:36:53;;;;;;;4.73;2.10;;;5.30;99.90;;;;;;5015274;28;20449;-68
2022/01/30 04:53:14;;;;;;;2.00;1.50;;;5.60;99.90;;;;;;5014493;28;20491;-68
2022/01/30 05:03:30;;;;;;;3.20;1.77;;;5.70;99.90;;;;;;5014712;28;20179;-67
2022/01/30 05:06:03;;;;;;;1.33;1.17;;;5.70;99.90;;;;;;5014801;28;20180;-68
2022/01/30 05:08:29;;;;;;;2.83;2.23;;;5.60;99.90;;;;;;5014694;28;20473;-68
2022/01/30 05:10:54;;;;;;;1.13;0.90;;;5.60;99.90;;;;;;5014156;28;20455;-67
2022/01/30 05:13:24;;;;;;;4.00;1.30;;;5.60;99.90;;;;;;5014165;28;20853;-67
2022/01/30 05:15:50;;;;;;;2.83;2.10;;;5.60;99.90;;;;;;5012951;28;20175;-67
2022/01/30 05:18:24;;;;;;;2.70;1.40;;;5.50;99.90;;;;;;5014275;28;20498;-67
2022/01/30 05:20:49;;;;;;;2.70;1.33;;;5.50;99.90;;;;;;5013902;28;20469;-67
2022/01/30 05:23:16;;;;;;;3.70;1.33;;;5.40;99.90;;;;;;5013942;28;20431;-68
2022/01/30 05:25:44;;;;;;;1.47;0.90;;;5.50;99.90;;;;;;5014059;28;20552;-67
2022/01/30 05:28:09;;;;;;;1.10;0.70;;;5.50;99.90;;;;;;5014044;28;20415;-67
2022/01/30 05:30:36;;;;;;;2.30;2.20;;;5.50;99.90;;;;;;5012852;28;20474;-67
2022/01/30 05:33:02;;;;;;;3.60;1.63;;;5.50;99.90;;;;;;5013758;28;20266;-67
2022/01/30 05:35:28;;;;;;;2.40;1.43;;;5.50;99.90;;;;;;5013794;28;20423;-67
2022/01/30 05:37:55;;;;;;;4.30;1.10;;;5.60;99.90;;;;;;5013619;28;20925;-67
2022/01/30 05:40:22;;;;;;;4.07;2.30;;;5.60;99.90;;;;;;5013554;28;20523;-67
2022/01/30 05:42:48;;;;;;;6.73;1.53;;;5.70;99.90;;;;;;5013659;28;20419;-67
2022/01/30 05:45:19;;;;;;;7.17;2.03;;;5.70;99.90;;;;;;5014138;28;20407;-67
2022/01/30 05:47:58;;;;;;;1.83;1.30;;;5.70;99.90;;;;;;5013609;28;20172;-66
2022/01/30 05:50:24;;;;;;;4.23;1.43;;;5.70;99.90;;;;;;5012084;28;20513;-67
2022/01/30 05:52:50;;;;;;;1.90;1.23;;;5.70;99.90;;;;;;5013105;28;20446;-67
2022/01/30 05:55:16;;;;;;;2.80;1.20;;;5.70;99.90;;;;;;5013514;28;20415;-66
2022/01/30 05:57:41;;;;;;;6.30;2.93;;;5.60;99.90;;;;;;5013152;28;20176;-67
2022/01/30 06:00:13;;;;;;;1.67;0.90;;;5.60;99.90;;;;;;5011836;28;20179;-67
2022/01/30 06:02:39;;;;;;;3.33;2.40;;;5.60;99.90;;;;;;5013334;28;20180;-67
2022/01/30 06:05:05;;;;;;;3.73;1.00;;;5.60;99.90;;;;;;5013131;28;20419;-67
2022/01/30 06:07:32;;;;;;;1.40;0.87;;;5.60;99.90;;;;;;5012844;28;20494;-67
2022/01/30 06:09:57;;;;;;;2.90;1.10;;;5.70;99.90;;;;;;5012957;28;20468;-67
2022/01/30 06:12:23;;;;;;;1.97;1.73;;;5.70;99.90;;;;;;5012929;28;20424;-67
2022/01/30 06:14:48;;;;;;;4.10;1.33;;;5.70;99.90;;;;;;5012893;28;20173;-67
2022/01/30 06:17:15;;;;;;;3.57;1.77;;;5.80;99.90;;;;;;5012747;28;20668;-67
2022/01/30 06:19:40;;;;;;;2.90;1.33;;;5.80;99.90;;;;;;5012972;28;20271;-67
2022/01/30 06:22:05;;;;;;;5.90;1.50;;;5.80;99.90;;;;;;5013041;28;20446;-67
2022/01/30 06:24:31;;;;;;;3.87;2.07;;;5.80;99.90;;;;;;5012909;28;20219;-67
2022/01/30 06:26:56;;;;;;;3.07;1.03;;;5.80;99.90;;;;;;5012869;28;20204;-68
2022/01/30 06:29:22;;;;;;;3.43;1.43;;;5.90;99.90;;;;;;5012682;28;20202;-67
2022/01/30 06:31:47;;;;;;;1.17;0.93;;;5.80;99.90;;;;;;5012634;28;20196;-67
2022/01/30 06:34:13;;;;;;;3.47;1.33;;;5.80;99.90;;;;;;5013307;28;20164;-67
2022/01/30 06:36:38;;;;;;;2.40;1.17;;;5.80;99.90;;;;;;5012576;28;20631;-67
2022/01/30 06:39:04;;;;;;;2.60;1.17;;;5.80;99.90;;;;;;5012348;28;20176;-67
2022/01/30 06:41:29;;;;;;;1.43;1.30;;;5.80;99.90;;;;;;5012342;28;20187;-68
2022/01/30 06:43:55;;;;;;;5.47;1.00;;;5.80;99.90;;;;;;5012527;28;20160;-67
2022/01/30 06:46:20;;;;;;;2.80;1.30;;;5.80;99.90;;;;;;5012641;28;20350;-68
2022/01/30 06:48:46;;;;;;;1.07;0.83;;;5.80;99.90;;;;;;5012340;28;20581;-68
2022/01/30 06:51:11;;;;;;;4.90;1.47;;;5.80;99.90;;;;;;5012299;28;20291;-68
2022/01/30 06:53:37;;;;;;;2.50;1.00;;;5.90;99.90;;;;;;5012343;28;20168;-67
2022/01/30 06:56:03;;;;;;;3.57;1.17;;;5.90;99.90;;;;;;5012497;28;20715;-68
2022/01/30 06:58:28;;;;;;;3.67;1.47;;;6.00;99.90;;;;;;5012270;28;20239;-67
2022/01/30 07:00:53;;;;;;;1.43;1.13;;;6.00;99.90;;;;;;5012279;28;20216;-68
2022/01/30 07:03:19;;;;;;;6.43;2.43;;;6.00;99.90;;;;;;5012317;28;20180;-67
2022/01/30 07:05:45;;;;;;;2.77;1.37;;;6.00;99.90;;;;;;5012282;28;20184;-67
2022/01/30 07:08:10;;;;;;;3.80;1.63;;;6.00;99.90;;;;;;5012851;28;20410;-68
2022/01/30 07:10:38;;;;;;;3.47;1.50;;;6.10;99.90;;;;;;5013331;28;20575;-68
2022/01/30 07:13:04;;;;;;;8.20;2.20;;;6.10;99.90;;;;;;5014157;28;20252;-68
2022/01/30 07:15:29;;;;;;;0.93;0.83;;;6.20;99.90;;;;;;5013730;28;20457;-67
2022/01/30 07:17:54;;;;;;;2.87;1.07;;;6.30;99.90;;;;;;5012552;28;20180;-68
2022/01/30 07:20:20;;;;;;;2.07;1.47;;;6.30;99.90;;;;;;5011883;28;20180;-71
2022/01/30 07:22:45;;;;;;;2.67;1.70;;;6.30;99.90;;;;;;5012791;28;20168;-66
2022/01/30 07:25:11;;;;;;;1.00;0.90;;;6.30;99.90;;;;;;5011695;28;20246;-67
2022/01/30 07:27:37;;;;;;;2.03;1.83;;;6.20;99.90;;;;;;5002860;28;20606;-69
2022/01/30 07:30:04;;;;;;;6.10;1.33;;;6.30;99.90;;;;;;5005289;28;20279;-67
2022/01/30 07:32:30;;;;;;;4.83;1.43;;;6.30;99.90;;;;;;5039361;22;20499;-73
2022/01/30 07:34:55;;;;;;;1.97;0.90;;;6.30;99.90;;;;;;4990856;28;20428;-73
2022/01/30 07:37:21;;;;;;;5.17;2.30;;;6.30;99.90;;;;;;4992490;28;20525;-73
2022/01/30 07:39:47;;;;;;;0.93;0.90;;;6.30;99.90;;;;;;4992250;28;20177;-73
2022/01/30 07:42:12;;;;;;;1.63;1.50;;;6.30;99.90;;;;;;4992516;28;20431;-73
2022/01/30 07:44:38;;;;;;;4.43;1.90;;;6.20;99.90;;;;;;4992277;28;20169;-73
2022/01/30 07:47:04;;;;;;;2.23;0.97;;;6.20;99.90;;;;;;4992519;28;20518;-73
2022/01/30 07:49:30;;;;;;;4.67;1.50;;;6.30;99.90;;;;;;4992115;28;20497;-74
2022/01/30 07:51:55;;;;;;;2.77;1.73;;;6.30;99.90;;;;;;4992096;28;20533;-73
2022/01/30 07:54:21;;;;;;;5.53;1.80;;;6.30;99.90;;;;;;4992073;28;20173;-73
2022/01/30 07:56:47;;;;;;;1.70;1.60;;;6.30;99.90;;;;;;4992421;28;20524;-73
2022/01/30 07:59:13;;;;;;;10.80;1.80;;;6.30;99.90;;;;;;4992203;28;20404;-73
2022/01/30 08:01:38;;;;;;;2.20;1.30;;;6.30;99.90;;;;;;4992240;28;20440;-75
2022/01/30 08:04:06;;;;;;;1.70;1.40;;;6.30;99.90;;;;;;4990773;28;20268;-73
2022/01/30 08:06:35;;;;;;;4.00;1.33;;;6.30;99.90;;;;;;4992079;28;20169;-73
2022/01/30 08:09:01;;;;;;;2.30;1.37;;;6.40;99.90;;;;;;4991954;28;20411;-73
2022/01/30 08:11:26;;;;;;;5.37;1.70;;;6.40;99.90;;;;;;4992055;28;20411;-73
2022/01/30 08:13:51;;;;;;;8.73;1.80;;;6.30;99.90;;;;;;4991990;28;20173;-73
2022/01/30 08:16:19;;;;;;;2.70;2.33;;;6.40;99.90;;;;;;4992180;28;20641;-73
2022/01/30 08:18:45;;;;;;;2.20;1.37;;;6.40;99.90;;;;;;4992064;28;20520;-73
2022/01/30 08:21:10;;;;;;;2.40;1.47;;;6.40;99.90;;;;;;4992154;28;20478;-73
2022/01/30 08:23:36;;;;;;;2.37;1.93;;;6.40;99.90;;;;;;4992289;28;20201;-73
2022/01/30 08:26:02;;;;;;;10.40;0.93;;;6.40;99.90;;;;;;4992039;28;20173;-73
2022/01/30 08:28:28;;;;;;;7.27;2.00;;;6.40;99.90;;;;;;4991865;28;20192;-73
2022/01/30 08:30:54;;;;;;;2.17;1.60;;;6.40;99.90;;;;;;4991741;28;20455;-73
2022/01/30 08:33:19;;;;;;;4.00;3.13;;;6.40;99.90;;;;;;4991692;28;20213;-73
2022/01/30 08:35:46;;;;;;;2.67;1.17;;;6.40;99.90;;;;;;4991577;28;20235;-73
2022/01/30 08:38:15;;;;;;;4.67;1.70;;;6.50;99.90;;;;;;4990613;28;20177;-73
2022/01/30 08:40:40;;;;;;;2.97;1.47;;;6.50;99.90;;;;;;4991657;28;20422;-73
2022/01/30 08:43:06;;;;;;;3.33;2.47;;;6.50;99.90;;;;;;4991439;28;20444;-73
2022/01/30 08:45:31;;;;;;;6.47;1.90;;;6.50;99.90;;;;;;4991730;28;20185;-73
2022/01/30 08:47:57;;;;;;;7.50;1.40;;;6.50;99.90;;;;;;4991864;28;20173;-73
2022/01/30 08:50:24;;;;;;;9.63;2.47;;;6.50;99.90;;;;;;4990269;28;20200;-73
2022/01/30 08:52:50;;;;;;;1.23;0.93;;;6.50;99.90;;;;;;4991725;28;20593;-73
2022/01/30 08:55:17;;;;;;;3.57;2.03;;;6.50;99.90;;;;;;4991579;28;20428;-73
2022/01/30 08:57:42;;;;;;;5.60;1.83;;;6.50;99.90;;;;;;4991980;28;20400;-73
2022/01/30 09:00:13;;;;;;;5.47;2.20;;;6.50;99.90;;;;;;4991529;28;20422;-73
2022/01/30 09:02:39;;;;;;;1.30;1.07;;;6.60;99.90;;;;;;4991700;28;20585;-73
2022/01/30 09:05:07;;;;;;;0.80;0.80;;;6.60;99.90;;;;;;4992638;28;20415;-73
2022/01/30 09:07:32;;;;;;;2.60;1.00;;;6.60;99.90;;;;;;4995259;28;20419;-73
2022/01/30 09:09:58;;;;;;;2.20;1.00;;;6.60;99.90;;;;;;4995000;28;20972;-73
2022/01/30 09:12:24;;;;;;;5.90;1.97;;;6.70;99.90;;;;;;4995019;28;20798;-72
2022/01/30 09:14:50;;;;;;;5.30;1.70;;;6.70;99.90;;;;;;4994959;28;20169;-73
2022/01/30 09:17:16;;;;;;;1.57;1.47;;;6.70;99.90;;;;;;4993685;28;20420;-73
2022/01/30 09:19:46;;;;;;;1.27;1.17;;;6.70;99.90;;;;;;4994867;28;20576;-73
2022/01/30 09:22:14;;;;;;;1.20;0.90;;;6.80;99.90;;;;;;4995011;28;21000;-73
2022/01/30 09:24:40;;;;;;;2.53;2.40;;;6.70;99.90;;;;;;4995038;28;20491;-76
2022/01/30 09:27:07;;;;;;;4.67;1.63;;;6.80;99.90;;;;;;4993647;28;20462;-73
2022/01/30 09:29:33;;;;;;;1.10;1.00;;;6.90;99.90;;;;;;4994599;28;20460;-75
2022/01/30 09:32:00;;;;;;;7.93;1.40;;;6.80;99.90;;;;;;4994418;28;20443;-72
2022/01/30 09:34:26;;;;;;;7.60;1.33;;;6.90;99.90;;;;;;4994393;28;20474;-73
2022/01/30 09:36:51;;;;;;;1.90;1.23;;;6.90;99.90;;;;;;4994632;28;20898;-72
2022/01/30 09:39:17;;;;;;;11.63;2.93;;;6.90;99.90;;;;;;4996044;28;20474;-73
2022/01/30 09:41:44;;;;;;;4.00;1.33;;;6.90;99.90;;;;;;4999792;28;20683;-73
2022/01/30 09:44:10;;;;;;;3.70;1.50;;;6.90;99.90;;;;;;4999759;28;20240;-73
2022/01/30 09:46:42;;;;;;;3.80;1.57;;;6.90;99.90;;;;;;5000318;28;20781;-73
2022/01/30 09:49:08;;;;;;;7.70;1.40;;;6.90;99.90;;;;;;4996268;28;20419;-73
2022/01/30 09:51:35;;;;;;;6.33;1.73;;;6.80;99.90;;;;;;4994481;28;20434;-72
2022/01/30 09:54:02;;;;;;;1.57;1.17;;;6.80;99.90;;;;;;4994373;28;20841;-72
2022/01/30 09:56:27;;;;;;;1.87;1.77;;;6.80;99.90;;;;;;4994288;28;20499;-72
2022/01/30 09:58:53;;;;;;;4.07;1.37;;;6.80;99.90;;;;;;4994163;28;20409;-71
2022/01/30 10:01:18;;;;;;;2.03;1.77;;;6.90;99.90;;;;;;4992934;28;20181;-73
2022/01/30 10:03:47;;;;;;;6.67;2.27;;;6.90;99.90;;;;;;4994058;28;20165;-73
2022/01/30 10:06:16;;;;;;;4.33;1.77;;;6.80;99.90;;;;;;4994200;28;20200;-73
2022/01/30 10:08:48;;;;;;;4.73;3.50;;;6.80;99.90;;;;;;4994261;28;20902;-73
2022/01/30 10:11:37;;;;;;;5.40;2.00;;;6.80;99.90;;;;;;4993825;28;20464;-73
2022/01/30 10:14:10;;;;;;;2.90;1.37;;;6.90;99.90;;;;;;4991958;28;20899;-73
2022/01/30 10:16:44;;;;;;;3.03;1.77;;;6.90;99.90;;;;;;4993964;28;20416;-73
2022/01/30 10:19:21;;;;;;;4.37;2.10;;;6.90;99.90;;;;;;4993944;28;20467;-73
2022/01/30 10:21:48;;;;;;;1.60;1.50;;;6.80;99.90;;;;;;4993770;28;20511;-73
2022/01/30 10:24:37;;;;;;;6.27;2.37;;;6.80;99.90;;;;;;4994017;28;20836;-73
2022/01/30 10:27:21;;;;;;;6.03;1.70;;;6.90;99.90;;;;;;4993682;28;20448;-73
2022/01/30 10:30:00;;;;;;;2.70;1.20;;;6.90;99.90;;;;;;4993371;28;20538;-73
2022/01/30 10:32:26;;;;;;;4.47;2.30;;;6.90;99.90;;;;;;4993501;28;20451;-73
2022/01/30 10:35:00;;;;;;;3.70;2.03;;;7.00;99.90;;;;;;4993575;28;20405;-73
2022/01/30 10:37:26;;;;;;;4.33;1.17;;;6.90;99.90;;;;;;4992410;28;20428;-71
2022/01/30 10:40:04;;;;;;;3.33;1.97;;;7.00;99.90;;;;;;4993490;28;20825;-74
2022/01/30 10:42:39;;;;;;;5.13;1.70;;;7.00;99.90;;;;;;4993187;28;20196;-72
2022/01/30 10:45:10;;;;;;;3.70;1.23;;;7.00;99.90;;;;;;4993503;28;20411;-74
2022/01/30 10:47:37;;;;;;;5.53;1.30;;;7.00;99.90;;;;;;4993648;28;20433;-73
2022/01/30 10:50:10;;;;;;;8.00;2.43;;;7.00;99.90;;;;;;4992557;28;20451;-73
2022/01/30 10:52:54;;;;;;;5.17;1.70;;;7.00;99.90;;;;;;4992226;28;20424;-73
2022/01/30 10:55:37;;;;;;;4.40;2.10;;;6.90;99.90;;;;;;4991571;28;20423;-73
2022/01/30 10:58:04;;;;;;;1.67;1.30;;;7.00;99.90;;;;;;4993588;28;20483;-73
2022/01/30 11:00:53;;;;;;;13.43;2.53;;;7.00;99.90;;;;;;4992923;28;20417;-73
2022/01/30 11:03:50;;;;;;;8.03;1.60;;;7.10;99.90;;;;;;4992502;28;20432;-73
2022/01/30 11:06:16;;;;;;;3.27;1.93;;;7.00;99.90;;;;;;4992853;28;20404;-73
2022/01/30 11:08:49;;;;;;;9.23;2.80;;;7.00;99.90;;;;;;4992951;28;20475;-74
2022/01/30 11:14:02;;;;;;;3.47;1.57;;;6.90;99.90;;;;;;4992644;28;20408;-73
2022/01/30 11:19:15;;;;;;;4.53;2.07;;;7.00;99.90;;;;;;4993205;28;20466;-73
2022/01/30 11:21:42;;;;;;;3.10;1.43;;;7.00;99.90;;;;;;4992641;28;20424;-73
2022/01/30 11:24:14;;;;;;;1.43;1.20;;;7.00;99.90;;;;;;4992658;28;20420;-73
2022/01/30 11:26:40;;;;;;;7.93;2.37;;;7.00;99.90;;;;;;4992553;28;20447;-73
2022/01/30 11:29:14;;;;;;;8.43;2.40;;;6.90;99.90;;;;;;4991846;28;20411;-74
2022/01/30 11:31:41;;;;;;;1.47;0.90;;;7.00;99.90;;;;;;4992343;28;20956;-73
2022/01/30 11:34:07;;;;;;;5.17;1.70;;;7.00;99.90;;;;;;4991480;28;20415;-73
2022/01/30 11:36:41;;;;;;;2.00;1.87;;;6.90;99.90;;;;;;4992412;28;20831;-73
2022/01/30 11:39:08;;;;;;;7.57;2.57;;;7.00;99.90;;;;;;4992490;28;20827;-73
2022/01/30 11:41:34;;;;;;;15.03;3.93;;;7.10;99.90;;;;;;4992695;28;20839;-73
2022/01/30 11:44:18;;;;;;;5.40;1.57;;;7.20;99.90;;;;;;4992694;28;20488;-73
2022/01/30 11:47:08;;;;;;;3.00;1.60;;;7.20;99.90;;;;;;4992478;28;20404;-73
2022/01/30 11:49:46;;;;;;;2.87;1.23;;;7.20;99.90;;;;;;4992447;28;20565;-73
2022/01/30 11:52:14;;;;;;;4.30;1.60;;;7.10;99.90;;;;;;4992390;28;20420;-74
2022/01/30 11:54:50;;;;;;;3.43;1.37;;;7.00;99.90;;;;;;4992691;28;20906;-74
2022/01/30 11:57:18;;;;;;;3.73;2.10;;;7.10;99.90;;;;;;4992550;28;20897;-73
2022/01/30 11:59:45;;;;;;;3.70;2.23;;;7.20;99.90;;;;;;4992371;28;20423;-74
2022/01/30 12:02:28;;;;;;;3.10;2.77;;;7.20;99.90;;;;;;4992631;28;20946;-74
2022/01/30 12:04:57;;;;;;;2.00;1.90;;;7.30;99.90;;;;;;4992894;28;20431;-73
2022/01/30 12:07:33;;;;;;;4.57;2.10;;;7.10;99.90;;;;;;5000412;28;20412;-74
2022/01/30 12:10:21;;;;;;;2.57;1.73;;;7.10;99.90;;;;;;5008962;28;20463;-75
2022/01/30 12:12:54;;;;;;;6.43;3.13;;;7.20;99.90;;;;;;5008718;28;20416;-74
2022/01/30 12:15:42;;;;;;;7.40;2.90;;;7.20;99.90;;;;;;5009791;28;20409;-74
2022/01/30 12:18:43;;;;;;;2.37;1.77;;;7.20;99.90;;;;;;5012213;28;20400;-74
2022/01/30 12:21:11;;;;;;;4.80;1.90;;;7.30;99.90;;;;;;5013900;28;20404;-74
2022/01/30 12:23:38;;;;;;;5.37;3.43;;;7.20;99.90;;;;;;5013186;28;20420;-75
2022/01/30 12:26:05;;;;;;;6.73;1.70;;;7.20;99.90;;;;;;5012147;28;20408;-73
2022/01/30 12:28:57;;;;;;;2.83;1.17;;;7.10;99.90;;;;;;5012854;28;20430;-73
2022/01/30 12:31:34;;;;;;;11.20;1.53;;;7.10;99.90;;;;;;4995085;28;20503;-72
2022/01/30 12:34:15;;;;;;;3.17;2.67;;;7.20;99.90;;;;;;4993143;28;20408;-73
2022/01/30 12:36:52;;;;;;;5.07;2.20;;;7.20;99.90;;;;;;4993274;28;20429;-73
2022/01/30 12:39:24;;;;;;;7.13;2.60;;;7.10;99.90;;;;;;4993677;28;20502;-73
2022/01/30 12:41:51;;;;;;;3.03;1.57;;;7.20;99.90;;;;;;4995770;28;20435;-73
2022/01/30 12:44:28;;;;;;;6.43;2.50;;;7.20;99.90;;;;;;4997192;28;20408;-74
2022/01/30 12:46:54;;;;;;;4.57;2.07;;;7.20;99.90;;;;;;4995880;28;20470;-73
2022/01/30 12:49:28;;;;;;;8.23;1.83;;;7.20;99.90;;;;;;4995851;28;20404;-73
2022/01/30 12:51:56;;;;;;;2.53;1.90;;;7.30;99.90;;;;;;4995618;28;20195;-73
2022/01/30 12:54:24;;;;;;;3.60;2.03;;;7.20;99.90;;;;;;4995625;28;20407;-73
2022/01/30 12:56:52;;;;;;;7.90;2.60;;;7.30;99.90;;;;;;4995605;28;20926;-73
2022/01/30 12:59:19;;;;;;;2.30;1.80;;;7.40;99.90;;;;;;4995428;28;20508;-73
2022/01/30 13:01:47;;;;;;;1.60;1.33;;;7.20;99.90;;;;;;4995587;28;20764;-73
2022/01/30 13:04:15;;;;;;;8.87;2.17;;;7.20;99.90;;;;;;4995346;28;20479;-73
2022/01/30 13:06:47;;;;;;;4.47;1.63;;;7.30;99.90;;;;;;4995699;28;20535;-73
2022/01/30 13:09:19;;;;;;;3.47;3.00;;;7.40;99.90;;;;;;4995207;28;20408;-73
2022/01/30 13:11:44;;;;;;;6.60;2.33;;;7.50;99.90;;;;;;4995459;28;20785;-73
2022/01/30 13:14:10;;;;;;;4.30;2.27;;;7.50;99.90;;;;;;4995123;28;20419;-73
2022/01/30 13:16:44;;;;;;;6.30;2.20;;;7.40;99.90;;;;;;4995095;28;20717;-73
2022/01/30 13:19:12;;;;;;;7.90;3.73;;;7.30;99.90;;;;;;4993521;28;20169;-74
2022/01/30 13:21:43;;;;;;;3.13;1.23;;;7.50;99.90;;;;;;4995301;28;20842;-73
2022/01/30 13:24:09;;;;;;;4.80;1.80;;;7.40;99.90;;;;;;4993666;28;20416;-73
2022/01/30 13:26:41;;;;;;;8.43;2.60;;;7.40;99.90;;;;;;4995183;28;20551;-73
2022/01/30 13:29:12;;;;;;;8.23;3.07;;;7.40;99.90;;;;;;4993030;28;20177;-73
2022/01/30 13:31:38;;;;;;;5.50;1.90;;;7.40;99.90;;;;;;4994534;28;20436;-73
2022/01/30 13:34:07;;;;;;;9.20;1.83;;;7.30;99.90;;;;;;5023906;23;20498;-67
2022/01/30 13:36:34;;;;;;;5.77;2.40;;;7.30;99.90;;;;;;5014330;28;20407;-67
2022/01/30 13:39:05;;;;;;;7.33;2.03;;;7.20;99.90;;;;;;5014293;28;20395;-67
2022/01/30 13:41:32;;;;;;;2.50;1.10;;;7.20;99.90;;;;;;5014187;28;20400;-67
2022/01/30 13:43:58;;;;;;;9.13;1.53;;;7.20;99.90;;;;;;5014071;28;20415;-67
2022/01/30 13:49:14;;;;;;;2.40;1.60;;;7.10;99.90;;;;;;5014265;28;20226;-66
2022/01/30 13:51:39;;;;;;;3.30;1.10;;;7.10;99.90;;;;;;5013181;28;20403;-67
2022/01/30 13:54:10;;;;;;;8.20;3.00;;;7.10;99.90;;;;;;5013522;28;20189;-68
2022/01/30 13:56:36;;;;;;;8.70;2.63;;;7.10;99.90;;;;;;5013744;28;20230;-67
2022/01/30 13:59:02;;;;;;;4.30;1.83;;;7.10;99.90;;;;;;5013511;28;20403;-68
2022/01/30 14:01:30;;;;;;;3.87;1.57;;;7.10;99.90;;;;;;5013873;28;20523;-68
2022/01/30 14:04:11;;;;;;;6.07;1.93;;;7.10;99.90;;;;;;5012129;28;20207;-68